sensor_id;sensor_type;location;lat;lon;timestamp;P1;durP1;ratioP1;P2;durP2;ratioP2
29210;SDS011;16250;49.932;10.980;2023-06-19T00:01:26;10.23;;;7.95;;
29210;SDS011;16250;49.932;10.980;2023-06-19T00:03:51;12.95;;;8.48;;
29210;SDS011;16250;49.932;10.980;2023-06-19T00:06:17;10.05;;;8.05;;
29210;SDS011;16250;49.932;10.980;2023-06-19T00:08:42;9.40;;;8.10;;
29210;SDS011;16250;49.932;10.980;2023-06-19T00:11:07;8.88;;;7.97;;
29210;SDS011;16250;49.932;10.980;2023-06-19T00:13:33;8.70;;;7.80;;
29210;SDS011;16250;49.932;10.980;2023-06-19T00:16:01;9.48;;;7.75;;
29210;SDS011;16250;49.932;10.980;2023-06-19T00:18:27;8.68;;;7.78;;
29210;SDS011;16250;49.932;10.980;2023-06-19T00:20:53;11.02;;;8.02;;
29210;SDS011;16250;49.932;10.980;2023-06-19T00:23:21;8.75;;;7.88;;
29210;SDS011;16250;49.932;10.980;2023-06-19T00:25:47;9.05;;;8.15;;
29210;SDS011;16250;49.932;10.980;2023-06-19T00:28:12;8.95;;;7.70;;
29210;SDS011;16250;49.932;10.980;2023-06-19T00:30:40;8.57;;;7.68;;
29210;SDS011;16250;49.932;10.980;2023-06-19T00:33:06;10.68;;;7.80;;
29210;SDS011;16250;49.932;10.980;2023-06-19T00:35:32;9.23;;;7.32;;
29210;SDS011;16250;49.932;10.980;2023-06-19T00:37:58;10.98;;;8.15;;
29210;SDS011;16250;49.932;10.980;2023-06-19T00:40:29;10.45;;;8.32;;
29210;SDS011;16250;49.932;10.980;2023-06-19T00:42:56;9.63;;;7.45;;
29210;SDS011;16250;49.932;10.980;2023-06-19T00:45:22;9.85;;;8.25;;
29210;SDS011;16250;49.932;10.980;2023-06-19T00:47:49;9.35;;;8.35;;
29210;SDS011;16250;49.932;10.980;2023-06-19T00:50:15;9.52;;;8.02;;
29210;SDS011;16250;49.932;10.980;2023-06-19T00:52:40;8.55;;;7.75;;
29210;SDS011;16250;49.932;10.980;2023-06-19T00:55:08;10.90;;;7.88;;
29210;SDS011;16250;49.932;10.980;2023-06-19T00:57:34;8.65;;;7.78;;
29210;SDS011;16250;49.932;10.980;2023-06-19T01:00:01;8.30;;;7.55;;
29210;SDS011;16250;49.932;10.980;2023-06-19T01:02:29;8.27;;;7.38;;
29210;SDS011;16250;49.932;10.980;2023-06-19T01:04:55;9.20;;;8.20;;
29210;SDS011;16250;49.932;10.980;2023-06-19T01:07:29;9.00;;;7.38;;
29210;SDS011;16250;49.932;10.980;2023-06-19T01:10:02;9.25;;;8.35;;
29210;SDS011;16250;49.932;10.980;2023-06-19T01:12:33;9.20;;;7.80;;
29210;SDS011;16250;49.932;10.980;2023-06-19T01:15:03;8.70;;;7.65;;
29210;SDS011;16250;49.932;10.980;2023-06-19T01:17:30;8.35;;;7.55;;
29210;SDS011;16250;49.932;10.980;2023-06-19T01:19:56;7.82;;;7.03;;
29210;SDS011;16250;49.932;10.980;2023-06-19T01:24:51;8.43;;;7.53;;
29210;SDS011;16250;49.932;10.980;2023-06-19T01:27:16;8.90;;;7.03;;
29210;SDS011;16250;49.932;10.980;2023-06-19T01:29:43;8.63;;;7.50;;
29210;SDS011;16250;49.932;10.980;2023-06-19T01:32:10;10.30;;;7.45;;
29210;SDS011;16250;49.932;10.980;2023-06-19T01:34:38;9.05;;;8.05;;
29210;SDS011;16250;49.932;10.980;2023-06-19T01:37:04;9.18;;;7.90;;
29210;SDS011;16250;49.932;10.980;2023-06-19T01:39:30;9.13;;;8.23;;
29210;SDS011;16250;49.932;10.980;2023-06-19T01:41:56;10.30;;;8.18;;
29210;SDS011;16250;49.932;10.980;2023-06-19T01:44:23;9.32;;;8.43;;
29210;SDS011;16250;49.932;10.980;2023-06-19T01:46:49;8.68;;;7.72;;
29210;SDS011;16250;49.932;10.980;2023-06-19T01:49:15;8.50;;;7.70;;
29210;SDS011;16250;49.932;10.980;2023-06-19T01:51:40;9.80;;;8.32;;
29210;SDS011;16250;49.932;10.980;2023-06-19T01:54:06;9.82;;;8.73;;
29210;SDS011;16250;49.932;10.980;2023-06-19T01:56:31;8.43;;;7.63;;
29210;SDS011;16250;49.932;10.980;2023-06-19T01:58:57;9.38;;;8.02;;
29210;SDS011;16250;49.932;10.980;2023-06-19T02:01:22;8.85;;;7.93;;
29210;SDS011;16250;49.932;10.980;2023-06-19T02:03:48;9.35;;;8.45;;
29210;SDS011;16250;49.932;10.980;2023-06-19T02:06:13;11.30;;;8.95;;
29210;SDS011;16250;49.932;10.980;2023-06-19T02:08:40;10.20;;;8.25;;
29210;SDS011;16250;49.932;10.980;2023-06-19T02:11:10;9.60;;;8.70;;
29210;SDS011;16250;49.932;10.980;2023-06-19T02:13:35;9.07;;;8.18;;
29210;SDS011;16250;49.932;10.980;2023-06-19T02:16:00;14.98;;;8.77;;
29210;SDS011;16250;49.932;10.980;2023-06-19T02:18:27;9.80;;;8.23;;
29210;SDS011;16250;49.932;10.980;2023-06-19T02:20:52;9.10;;;8.15;;
29210;SDS011;16250;49.932;10.980;2023-06-19T02:23:18;9.57;;;8.55;;
29210;SDS011;16250;49.932;10.980;2023-06-19T02:25:43;9.68;;;8.48;;
29210;SDS011;16250;49.932;10.980;2023-06-19T02:28:08;9.52;;;8.25;;
29210;SDS011;16250;49.932;10.980;2023-06-19T02:30:34;9.95;;;8.73;;
29210;SDS011;16250;49.932;10.980;2023-06-19T02:32:59;9.05;;;8.15;;
29210;SDS011;16250;49.932;10.980;2023-06-19T02:35:24;10.13;;;8.77;;
29210;SDS011;16250;49.932;10.980;2023-06-19T02:37:50;9.30;;;8.40;;
29210;SDS011;16250;49.932;10.980;2023-06-19T02:40:15;10.52;;;8.80;;
29210;SDS011;16250;49.932;10.980;2023-06-19T02:42:41;10.65;;;8.32;;
29210;SDS011;16250;49.932;10.980;2023-06-19T02:45:06;10.50;;;8.45;;
29210;SDS011;16250;49.932;10.980;2023-06-19T02:50:40;10.48;;;8.93;;
29210;SDS011;16250;49.932;10.980;2023-06-19T02:53:17;10.32;;;8.68;;
29210;SDS011;16250;49.932;10.980;2023-06-19T02:55:47;9.20;;;8.30;;
29210;SDS011;16250;49.932;10.980;2023-06-19T02:58:17;10.02;;;8.75;;
29210;SDS011;16250;49.932;10.980;2023-06-19T03:03:57;12.15;;;9.48;;
29210;SDS011;16250;49.932;10.980;2023-06-19T03:06:22;9.30;;;8.05;;
29210;SDS011;16250;49.932;10.980;2023-06-19T03:08:51;10.65;;;8.40;;
29210;SDS011;16250;49.932;10.980;2023-06-19T03:11:20;10.88;;;8.63;;
29210;SDS011;16250;49.932;10.980;2023-06-19T03:13:52;9.95;;;8.52;;
29210;SDS011;16250;49.932;10.980;2023-06-19T03:16:19;11.68;;;8.93;;
29210;SDS011;16250;49.932;10.980;2023-06-19T03:18:45;12.73;;;8.70;;
29210;SDS011;16250;49.932;10.980;2023-06-19T03:21:11;9.30;;;8.40;;
29210;SDS011;16250;49.932;10.980;2023-06-19T03:23:41;12.60;;;8.98;;
29210;SDS011;16250;49.932;10.980;2023-06-19T03:26:07;9.93;;;8.15;;
29210;SDS011;16250;49.932;10.980;2023-06-19T03:28:35;8.95;;;8.05;;
29210;SDS011;16250;49.932;10.980;2023-06-19T03:31:01;11.45;;;9.23;;
29210;SDS011;16250;49.932;10.980;2023-06-19T03:33:27;10.95;;;8.68;;
29210;SDS011;16250;49.932;10.980;2023-06-19T03:35:53;9.73;;;8.73;;
29210;SDS011;16250;49.932;10.980;2023-06-19T03:38:35;10.52;;;9.02;;
29210;SDS011;16250;49.932;10.980;2023-06-19T03:41:01;10.32;;;8.48;;
29210;SDS011;16250;49.932;10.980;2023-06-19T03:43:26;10.15;;;8.60;;
29210;SDS011;16250;49.932;10.980;2023-06-19T03:45:52;9.15;;;8.10;;
29210;SDS011;16250;49.932;10.980;2023-06-19T03:48:17;9.25;;;7.70;;
29210;SDS011;16250;49.932;10.980;2023-06-19T03:50:43;10.20;;;7.90;;
29210;SDS011;16250;49.932;10.980;2023-06-19T03:53:09;10.00;;;7.97;;
29210;SDS011;16250;49.932;10.980;2023-06-19T03:55:34;8.82;;;7.93;;
29210;SDS011;16250;49.932;10.980;2023-06-19T03:58:00;9.77;;;8.43;;
29210;SDS011;16250;49.932;10.980;2023-06-19T04:00:25;9.02;;;8.02;;
29210;SDS011;16250;49.932;10.980;2023-06-19T04:02:51;9.52;;;8.52;;
29210;SDS011;16250;49.932;10.980;2023-06-19T04:05:18;11.20;;;7.72;;
29210;SDS011;16250;49.932;10.980;2023-06-19T04:07:44;8.52;;;7.47;;
29210;SDS011;16250;49.932;10.980;2023-06-19T04:10:13;10.20;;;7.53;;
29210;SDS011;16250;49.932;10.980;2023-06-19T04:12:38;13.55;;;7.70;;
29210;SDS011;16250;49.932;10.980;2023-06-19T04:15:06;10.50;;;7.88;;
29210;SDS011;16250;49.932;10.980;2023-06-19T04:17:32;8.98;;;8.07;;
29210;SDS011;16250;49.932;10.980;2023-06-19T04:19:57;11.13;;;8.00;;
29210;SDS011;16250;49.932;10.980;2023-06-19T04:22:23;11.88;;;8.13;;
29210;SDS011;16250;49.932;10.980;2023-06-19T04:24:48;8.57;;;7.65;;
29210;SDS011;16250;49.932;10.980;2023-06-19T04:27:13;10.23;;;8.27;;
29210;SDS011;16250;49.932;10.980;2023-06-19T04:29:39;8.40;;;7.55;;
29210;SDS011;16250;49.932;10.980;2023-06-19T04:32:04;9.52;;;7.93;;
29210;SDS011;16250;49.932;10.980;2023-06-19T04:34:36;10.85;;;7.45;;
29210;SDS011;16250;49.932;10.980;2023-06-19T04:37:05;9.77;;;8.23;;
29210;SDS011;16250;49.932;10.980;2023-06-19T04:39:31;8.95;;;8.05;;
29210;SDS011;16250;49.932;10.980;2023-06-19T04:41:56;9.15;;;7.82;;
29210;SDS011;16250;49.932;10.980;2023-06-19T04:44:21;8.90;;;7.78;;
29210;SDS011;16250;49.932;10.980;2023-06-19T04:46:47;9.20;;;8.15;;
29210;SDS011;16250;49.932;10.980;2023-06-19T04:49:12;11.00;;;8.93;;
29210;SDS011;16250;49.932;10.980;2023-06-19T04:51:38;8.68;;;7.78;;
29210;SDS011;16250;49.932;10.980;2023-06-19T04:54:03;11.75;;;8.45;;
29210;SDS011;16250;49.932;10.980;2023-06-19T04:56:28;10.30;;;8.05;;
29210;SDS011;16250;49.932;10.980;2023-06-19T04:58:55;9.45;;;8.23;;
29210;SDS011;16250;49.932;10.980;2023-06-19T05:01:24;10.57;;;8.30;;
29210;SDS011;16250;49.932;10.980;2023-06-19T05:03:53;9.32;;;8.30;;
29210;SDS011;16250;49.932;10.980;2023-06-19T05:06:19;11.20;;;8.25;;
29210;SDS011;16250;49.932;10.980;2023-06-19T05:08:45;8.98;;;8.07;;
29210;SDS011;16250;49.932;10.980;2023-06-19T05:11:10;9.90;;;8.50;;
29210;SDS011;16250;49.932;10.980;2023-06-19T05:13:36;12.32;;;9.05;;
29210;SDS011;16250;49.932;10.980;2023-06-19T05:16:01;10.68;;;8.30;;
29210;SDS011;16250;49.932;10.980;2023-06-19T05:18:26;10.38;;;9.13;;
29210;SDS011;16250;49.932;10.980;2023-06-19T05:20:52;10.75;;;8.15;;
29210;SDS011;16250;49.932;10.980;2023-06-19T05:23:18;9.20;;;8.30;;
29210;SDS011;16250;49.932;10.980;2023-06-19T05:25:44;11.13;;;9.02;;
29210;SDS011;16250;49.932;10.980;2023-06-19T05:28:10;10.85;;;8.40;;
29210;SDS011;16250;49.932;10.980;2023-06-19T05:30:35;10.50;;;9.38;;
29210;SDS011;16250;49.932;10.980;2023-06-19T05:33:01;10.32;;;8.55;;
29210;SDS011;16250;49.932;10.980;2023-06-19T05:35:26;12.35;;;8.93;;
29210;SDS011;16250;49.932;10.980;2023-06-19T05:37:52;10.40;;;9.32;;
29210;SDS011;16250;49.932;10.980;2023-06-19T05:40:17;11.52;;;8.85;;
29210;SDS011;16250;49.932;10.980;2023-06-19T05:42:42;11.38;;;9.10;;
29210;SDS011;16250;49.932;10.980;2023-06-19T05:45:08;12.30;;;9.38;;
29210;SDS011;16250;49.932;10.980;2023-06-19T05:47:34;10.38;;;9.23;;
29210;SDS011;16250;49.932;10.980;2023-06-19T05:49:59;10.85;;;9.55;;
29210;SDS011;16250;49.932;10.980;2023-06-19T05:52:24;11.98;;;9.90;;
29210;SDS011;16250;49.932;10.980;2023-06-19T05:54:50;10.88;;;9.77;;
29210;SDS011;16250;49.932;10.980;2023-06-19T05:57:15;11.88;;;9.15;;
29210;SDS011;16250;49.932;10.980;2023-06-19T05:59:44;10.75;;;9.25;;
29210;SDS011;16250;49.932;10.980;2023-06-19T06:02:09;11.00;;;9.88;;
29210;SDS011;16250;49.932;10.980;2023-06-19T06:04:34;11.50;;;9.45;;
29210;SDS011;16250;49.932;10.980;2023-06-19T06:07:01;10.18;;;9.13;;
29210;SDS011;16250;49.932;10.980;2023-06-19T06:09:26;12.38;;;9.60;;
29210;SDS011;16250;49.932;10.980;2023-06-19T06:11:52;11.32;;;9.50;;
29210;SDS011;16250;49.932;10.980;2023-06-19T06:14:17;11.88;;;9.70;;
29210;SDS011;16250;49.932;10.980;2023-06-19T06:16:43;11.27;;;9.77;;
29210;SDS011;16250;49.932;10.980;2023-06-19T06:19:08;11.85;;;9.77;;
29210;SDS011;16250;49.932;10.980;2023-06-19T06:21:33;11.90;;;9.48;;
29210;SDS011;16250;49.932;10.980;2023-06-19T06:24:00;11.32;;;10.07;;
29210;SDS011;16250;49.932;10.980;2023-06-19T06:26:25;11.35;;;9.70;;
29210;SDS011;16250;49.932;10.980;2023-06-19T06:28:53;11.60;;;10.23;;
29210;SDS011;16250;49.932;10.980;2023-06-19T06:31:18;14.95;;;10.65;;
29210;SDS011;16250;49.932;10.980;2023-06-19T06:33:43;11.35;;;10.18;;
29210;SDS011;16250;49.932;10.980;2023-06-19T06:36:09;10.88;;;9.77;;
29210;SDS011;16250;49.932;10.980;2023-06-19T06:38:34;10.80;;;9.70;;
29210;SDS011;16250;49.932;10.980;2023-06-19T06:41:00;10.70;;;9.60;;
29210;SDS011;16250;49.932;10.980;2023-06-19T06:43:25;12.75;;;10.10;;
29210;SDS011;16250;49.932;10.980;2023-06-19T06:45:50;11.02;;;9.93;;
29210;SDS011;16250;49.932;10.980;2023-06-19T06:48:16;10.52;;;9.43;;
29210;SDS011;16250;49.932;10.980;2023-06-19T06:50:41;13.98;;;10.32;;
29210;SDS011;16250;49.932;10.980;2023-06-19T06:53:07;12.63;;;9.82;;
29210;SDS011;16250;49.932;10.980;2023-06-19T06:55:33;11.95;;;10.30;;
29210;SDS011;16250;49.932;10.980;2023-06-19T06:57:58;12.60;;;10.20;;
29210;SDS011;16250;49.932;10.980;2023-06-19T07:00:24;11.70;;;10.50;;
29210;SDS011;16250;49.932;10.980;2023-06-19T07:02:49;11.13;;;9.93;;
29210;SDS011;16250;49.932;10.980;2023-06-19T07:05:15;12.77;;;10.40;;
29210;SDS011;16250;49.932;10.980;2023-06-19T07:07:41;11.23;;;10.10;;
29210;SDS011;16250;49.932;10.980;2023-06-19T07:10:06;11.65;;;10.45;;
29210;SDS011;16250;49.932;10.980;2023-06-19T07:12:32;11.25;;;10.05;;
29210;SDS011;16250;49.932;10.980;2023-06-19T07:14:58;11.02;;;9.80;;
29210;SDS011;16250;49.932;10.980;2023-06-19T07:17:23;11.48;;;10.27;;
29210;SDS011;16250;49.932;10.980;2023-06-19T07:19:48;11.25;;;10.15;;
29210;SDS011;16250;49.932;10.980;2023-06-19T07:22:14;11.23;;;10.10;;
29210;SDS011;16250;49.932;10.980;2023-06-19T07:24:40;12.57;;;10.25;;
29210;SDS011;16250;49.932;10.980;2023-06-19T07:27:05;15.65;;;10.05;;
29210;SDS011;16250;49.932;10.980;2023-06-19T07:29:31;12.65;;;10.80;;
29210;SDS011;16250;49.932;10.980;2023-06-19T07:31:57;11.10;;;10.00;;
29210;SDS011;16250;49.932;10.980;2023-06-19T07:34:23;10.98;;;9.75;;
29210;SDS011;16250;49.932;10.980;2023-06-19T07:36:48;12.38;;;9.65;;
29210;SDS011;16250;49.932;10.980;2023-06-19T07:39:13;11.65;;;9.90;;
29210;SDS011;16250;49.932;10.980;2023-06-19T07:41:39;11.63;;;10.43;;
29210;SDS011;16250;49.932;10.980;2023-06-19T07:44:05;10.95;;;9.90;;
29210;SDS011;16250;49.932;10.980;2023-06-19T07:46:30;11.75;;;10.55;;
29210;SDS011;16250;49.932;10.980;2023-06-19T07:48:55;12.73;;;10.43;;
29210;SDS011;16250;49.932;10.980;2023-06-19T07:51:21;12.50;;;10.13;;
29210;SDS011;16250;49.932;10.980;2023-06-19T07:53:46;11.27;;;9.95;;
29210;SDS011;16250;49.932;10.980;2023-06-19T07:56:11;11.02;;;9.95;;
29210;SDS011;16250;49.932;10.980;2023-06-19T07:58:37;11.50;;;10.32;;
29210;SDS011;16250;49.932;10.980;2023-06-19T08:01:02;11.65;;;9.85;;
29210;SDS011;16250;49.932;10.980;2023-06-19T08:03:28;13.82;;;10.00;;
29210;SDS011;16250;49.932;10.980;2023-06-19T08:05:53;14.38;;;9.10;;
29210;SDS011;16250;49.932;10.980;2023-06-19T08:08:18;11.45;;;8.30;;
29210;SDS011;16250;49.932;10.980;2023-06-19T08:10:44;10.70;;;9.10;;
29210;SDS011;16250;49.932;10.980;2023-06-19T08:13:09;9.40;;;8.40;;
29210;SDS011;16250;49.932;10.980;2023-06-19T08:15:36;10.98;;;8.85;;
29210;SDS011;16250;49.932;10.980;2023-06-19T08:18:02;11.18;;;9.40;;
29210;SDS011;16250;49.932;10.980;2023-06-19T08:20:27;10.63;;;9.55;;
29210;SDS011;16250;49.932;10.980;2023-06-19T08:22:53;12.30;;;9.02;;
29210;SDS011;16250;49.932;10.980;2023-06-19T08:25:18;9.90;;;8.90;;
29210;SDS011;16250;49.932;10.980;2023-06-19T08:27:43;13.55;;;8.70;;
29210;SDS011;16250;49.932;10.980;2023-06-19T08:30:10;9.15;;;8.10;;
29210;SDS011;16250;49.932;10.980;2023-06-19T08:32:35;8.70;;;7.80;;
29210;SDS011;16250;49.932;10.980;2023-06-19T08:35:01;11.00;;;8.95;;
29210;SDS011;16250;49.932;10.980;2023-06-19T08:37:26;8.95;;;8.00;;
29210;SDS011;16250;49.932;10.980;2023-06-19T08:39:52;10.00;;;8.98;;
29210;SDS011;16250;49.932;10.980;2023-06-19T08:42:17;11.40;;;8.95;;
29210;SDS011;16250;49.932;10.980;2023-06-19T08:44:43;9.93;;;8.90;;
29210;SDS011;16250;49.932;10.980;2023-06-19T08:47:08;11.10;;;8.70;;
29210;SDS011;16250;49.932;10.980;2023-06-19T08:49:35;11.93;;;8.95;;
29210;SDS011;16250;49.932;10.980;2023-06-19T08:52:04;11.45;;;9.30;;
29210;SDS011;16250;49.932;10.980;2023-06-19T08:54:29;10.30;;;9.20;;
29210;SDS011;16250;49.932;10.980;2023-06-19T08:56:55;9.60;;;8.63;;
29210;SDS011;16250;49.932;10.980;2023-06-19T08:59:20;8.88;;;8.07;;
29210;SDS011;16250;49.932;10.980;2023-06-19T09:01:47;10.70;;;8.52;;
29210;SDS011;16250;49.932;10.980;2023-06-19T09:04:27;9.57;;;8.32;;
29210;SDS011;16250;49.932;10.980;2023-06-19T09:06:53;8.88;;;8.07;;
29210;SDS011;16250;49.932;10.980;2023-06-19T09:09:20;9.52;;;8.20;;
29210;SDS011;16250;49.932;10.980;2023-06-19T09:11:57;10.05;;;8.93;;
29210;SDS011;16250;49.932;10.980;2023-06-19T09:14:44;9.65;;;8.40;;
29210;SDS011;16250;49.932;10.980;2023-06-19T09:17:17;9.75;;;8.27;;
29210;SDS011;16250;49.932;10.980;2023-06-19T09:19:51;9.43;;;7.97;;
29210;SDS011;16250;49.932;10.980;2023-06-19T09:22:18;8.68;;;7.78;;
29210;SDS011;16250;49.932;10.980;2023-06-19T09:24:45;9.98;;;8.35;;
29210;SDS011;16250;49.932;10.980;2023-06-19T09:27:12;12.50;;;8.20;;
29210;SDS011;16250;49.932;10.980;2023-06-19T09:29:40;12.90;;;7.82;;
29210;SDS011;16250;49.932;10.980;2023-06-19T09:32:19;11.38;;;8.30;;
29210;SDS011;16250;49.932;10.980;2023-06-19T09:34:47;9.65;;;8.63;;
29210;SDS011;16250;49.932;10.980;2023-06-19T09:37:14;9.35;;;8.02;;
29210;SDS011;16250;49.932;10.980;2023-06-19T09:39:40;9.63;;;8.30;;
29210;SDS011;16250;49.932;10.980;2023-06-19T09:42:09;9.77;;;8.10;;
29210;SDS011;16250;49.932;10.980;2023-06-19T09:44:41;10.10;;;8.07;;
29210;SDS011;16250;49.932;10.980;2023-06-19T09:50:16;9.18;;;7.85;;
29210;SDS011;16250;49.932;10.980;2023-06-19T09:52:46;11.55;;;7.15;;
29210;SDS011;16250;49.932;10.980;2023-06-19T09:55:12;9.27;;;8.30;;
29210;SDS011;16250;49.932;10.980;2023-06-19T09:57:38;8.55;;;7.70;;
29210;SDS011;16250;49.932;10.980;2023-06-19T10:00:05;9.88;;;8.05;;
29210;SDS011;16250;49.932;10.980;2023-06-19T10:02:40;11.55;;;8.02;;
29210;SDS011;16250;49.932;10.980;2023-06-19T10:05:06;10.48;;;8.30;;
29210;SDS011;16250;49.932;10.980;2023-06-19T10:07:36;10.43;;;7.82;;
29210;SDS011;16250;49.932;10.980;2023-06-19T10:12:47;7.93;;;7.00;;
29210;SDS011;16250;49.932;10.980;2023-06-19T10:17:49;8.13;;;7.03;;
29210;SDS011;16250;49.932;10.980;2023-06-19T10:22:57;7.75;;;6.95;;
29210;SDS011;16250;49.932;10.980;2023-06-19T10:25:37;7.63;;;6.75;;
29210;SDS011;16250;49.932;10.980;2023-06-19T10:28:03;9.85;;;7.22;;
29210;SDS011;16250;49.932;10.980;2023-06-19T10:30:33;8.68;;;7.30;;
29210;SDS011;16250;49.932;10.980;2023-06-19T10:32:59;8.18;;;7.10;;
29210;SDS011;16250;49.932;10.980;2023-06-19T10:35:29;7.93;;;6.95;;
29210;SDS011;16250;49.932;10.980;2023-06-19T10:37:54;8.00;;;6.90;;
29210;SDS011;16250;49.932;10.980;2023-06-19T10:40:19;7.78;;;6.97;;
29210;SDS011;16250;49.932;10.980;2023-06-19T10:42:45;7.63;;;6.90;;
29210;SDS011;16250;49.932;10.980;2023-06-19T10:45:11;7.95;;;7.15;;
29210;SDS011;16250;49.932;10.980;2023-06-19T10:47:38;8.10;;;6.18;;
29210;SDS011;16250;49.932;10.980;2023-06-19T10:50:14;6.90;;;6.30;;
29210;SDS011;16250;49.932;10.980;2023-06-19T10:52:41;8.80;;;5.78;;
29210;SDS011;16250;49.932;10.980;2023-06-19T10:55:08;5.97;;;5.38;;
29210;SDS011;16250;49.932;10.980;2023-06-19T10:57:33;7.13;;;5.50;;
29210;SDS011;16250;49.932;10.980;2023-06-19T10:59:59;6.43;;;5.82;;
29210;SDS011;16250;49.932;10.980;2023-06-19T11:02:24;7.30;;;5.40;;
29210;SDS011;16250;49.932;10.980;2023-06-19T11:04:53;6.03;;;5.40;;
29210;SDS011;16250;49.932;10.980;2023-06-19T11:07:19;5.68;;;5.18;;
29210;SDS011;16250;49.932;10.980;2023-06-19T11:09:45;6.13;;;5.53;;
29210;SDS011;16250;49.932;10.980;2023-06-19T11:12:11;6.25;;;5.60;;
29210;SDS011;16250;49.932;10.980;2023-06-19T11:14:36;7.15;;;6.18;;
29210;SDS011;16250;49.932;10.980;2023-06-19T11:17:05;6.40;;;5.38;;
29210;SDS011;16250;49.932;10.980;2023-06-19T11:19:31;7.63;;;5.78;;
29210;SDS011;16250;49.932;10.980;2023-06-19T11:21:58;6.18;;;5.57;;
29210;SDS011;16250;49.932;10.980;2023-06-19T11:24:24;7.90;;;5.70;;
29210;SDS011;16250;49.932;10.980;2023-06-19T11:26:50;6.30;;;5.68;;
29210;SDS011;16250;49.932;10.980;2023-06-19T11:29:19;6.25;;;5.45;;
29210;SDS011;16250;49.932;10.980;2023-06-19T11:31:47;6.40;;;5.60;;
29210;SDS011;16250;49.932;10.980;2023-06-19T11:34:13;7.13;;;5.70;;
29210;SDS011;16250;49.932;10.980;2023-06-19T11:36:40;6.32;;;5.63;;
29210;SDS011;16250;49.932;10.980;2023-06-19T11:39:10;7.65;;;6.60;;
29210;SDS011;16250;49.932;10.980;2023-06-19T11:41:38;6.50;;;5.80;;
29210;SDS011;16250;49.932;10.980;2023-06-19T11:44:05;6.40;;;5.80;;
29210;SDS011;16250;49.932;10.980;2023-06-19T11:46:32;6.57;;;5.95;;
29210;SDS011;16250;49.932;10.980;2023-06-19T11:49:14;7.03;;;6.25;;
29210;SDS011;16250;49.932;10.980;2023-06-19T11:51:43;8.55;;;6.13;;
29210;SDS011;16250;49.932;10.980;2023-06-19T11:54:09;6.90;;;6.20;;
29210;SDS011;16250;49.932;10.980;2023-06-19T11:56:35;6.80;;;6.00;;
29210;SDS011;16250;49.932;10.980;2023-06-19T11:59:01;7.45;;;5.90;;
29210;SDS011;16250;49.932;10.980;2023-06-19T12:01:27;8.65;;;6.55;;
29210;SDS011;16250;49.932;10.980;2023-06-19T12:03:53;6.45;;;5.85;;
29210;SDS011;16250;49.932;10.980;2023-06-19T12:06:18;8.40;;;6.15;;
29210;SDS011;16250;49.932;10.980;2023-06-19T12:08:44;9.40;;;6.53;;
29210;SDS011;16250;49.932;10.980;2023-06-19T12:11:09;9.02;;;6.07;;
29210;SDS011;16250;49.932;10.980;2023-06-19T12:13:35;6.95;;;6.25;;
29210;SDS011;16250;49.932;10.980;2023-06-19T12:16:01;6.45;;;5.50;;
29210;SDS011;16250;49.932;10.980;2023-06-19T12:18:26;8.73;;;6.20;;
29210;SDS011;16250;49.932;10.980;2023-06-19T12:20:52;10.05;;;6.75;;
29210;SDS011;16250;49.932;10.980;2023-06-19T12:23:17;6.75;;;6.05;;
29210;SDS011;16250;49.932;10.980;2023-06-19T12:25:43;8.50;;;6.10;;
29210;SDS011;16250;49.932;10.980;2023-06-19T12:28:08;10.10;;;6.60;;
29210;SDS011;16250;49.932;10.980;2023-06-19T12:30:34;7.15;;;6.38;;
29210;SDS011;16250;49.932;10.980;2023-06-19T12:33:00;6.57;;;5.97;;
29210;SDS011;16250;49.932;10.980;2023-06-19T12:35:28;7.57;;;6.13;;
29210;SDS011;16250;49.932;10.980;2023-06-19T12:37:53;7.30;;;6.60;;
29210;SDS011;16250;49.932;10.980;2023-06-19T12:40:20;8.90;;;6.78;;
29210;SDS011;16250;49.932;10.980;2023-06-19T12:42:45;6.80;;;6.13;;
29210;SDS011;16250;49.932;10.980;2023-06-19T12:45:11;7.45;;;6.30;;
29210;SDS011;16250;49.932;10.980;2023-06-19T12:47:37;8.45;;;6.68;;
29210;SDS011;16250;49.932;10.980;2023-06-19T12:50:02;6.95;;;6.30;;
29210;SDS011;16250;49.932;10.980;2023-06-19T12:52:28;16.80;;;6.47;;
29210;SDS011;16250;49.932;10.980;2023-06-19T12:54:53;6.60;;;5.90;;
29210;SDS011;16250;49.932;10.980;2023-06-19T12:57:19;6.68;;;5.93;;
29210;SDS011;16250;49.932;10.980;2023-06-19T12:59:44;6.63;;;6.03;;
29210;SDS011;16250;49.932;10.980;2023-06-19T13:02:09;8.15;;;6.35;;
29210;SDS011;16250;49.932;10.980;2023-06-19T13:04:35;7.30;;;6.45;;
29210;SDS011;16250;49.932;10.980;2023-06-19T13:07:00;6.88;;;6.03;;
29210;SDS011;16250;49.932;10.980;2023-06-19T13:09:26;7.90;;;6.38;;
29210;SDS011;16250;49.932;10.980;2023-06-19T13:11:51;6.47;;;5.97;;
29210;SDS011;16250;49.932;10.980;2023-06-19T13:14:16;6.57;;;5.97;;
29210;SDS011;16250;49.932;10.980;2023-06-19T13:16:43;6.63;;;6.03;;
29210;SDS011;16250;49.932;10.980;2023-06-19T13:19:08;6.65;;;6.05;;
29210;SDS011;16250;49.932;10.980;2023-06-19T13:21:34;7.47;;;6.78;;
29210;SDS011;16250;49.932;10.980;2023-06-19T13:24:00;6.50;;;5.90;;
29210;SDS011;16250;49.932;10.980;2023-06-19T13:26:26;7.32;;;6.63;;
29210;SDS011;16250;49.932;10.980;2023-06-19T13:28:51;7.00;;;6.22;;
29210;SDS011;16250;49.932;10.980;2023-06-19T13:31:17;6.88;;;5.85;;
29210;SDS011;16250;49.932;10.980;2023-06-19T13:33:42;5.95;;;5.38;;
29210;SDS011;16250;49.932;10.980;2023-06-19T13:36:07;7.05;;;6.35;;
29210;SDS011;16250;49.932;10.980;2023-06-19T13:38:33;6.88;;;5.93;;
29210;SDS011;16250;49.932;10.980;2023-06-19T13:40:58;6.90;;;6.07;;
29210;SDS011;16250;49.932;10.980;2023-06-19T13:43:23;6.78;;;6.07;;
29210;SDS011;16250;49.932;10.980;2023-06-19T13:45:49;5.95;;;5.35;;
29210;SDS011;16250;49.932;10.980;2023-06-19T13:48:14;6.20;;;5.68;;
29210;SDS011;16250;49.932;10.980;2023-06-19T13:50:40;6.65;;;5.72;;
29210;SDS011;16250;49.932;10.980;2023-06-19T13:53:05;6.15;;;5.38;;
29210;SDS011;16250;49.932;10.980;2023-06-19T13:55:31;7.90;;;5.90;;
29210;SDS011;16250;49.932;10.980;2023-06-19T13:57:56;8.02;;;6.28;;
29210;SDS011;16250;49.932;10.980;2023-06-19T14:00:21;6.30;;;5.80;;
29210;SDS011;16250;49.932;10.980;2023-06-19T14:02:47;6.55;;;5.75;;
29210;SDS011;16250;49.932;10.980;2023-06-19T14:05:12;8.40;;;5.75;;
29210;SDS011;16250;49.932;10.980;2023-06-19T14:07:39;6.68;;;5.68;;
29210;SDS011;16250;49.932;10.980;2023-06-19T14:10:05;9.60;;;5.50;;
29210;SDS011;16250;49.932;10.980;2023-06-19T14:12:31;7.53;;;5.60;;
29210;SDS011;16250;49.932;10.980;2023-06-19T14:14:56;6.10;;;5.60;;
29210;SDS011;16250;49.932;10.980;2023-06-19T14:17:22;6.05;;;5.40;;
29210;SDS011;16250;49.932;10.980;2023-06-19T14:19:47;6.75;;;5.57;;
29210;SDS011;16250;49.932;10.980;2023-06-19T14:22:13;6.25;;;5.65;;
29210;SDS011;16250;49.932;10.980;2023-06-19T14:24:38;5.28;;;4.78;;
29210;SDS011;16250;49.932;10.980;2023-06-19T14:27:04;6.53;;;5.25;;
29210;SDS011;16250;49.932;10.980;2023-06-19T14:29:29;6.53;;;4.82;;
29210;SDS011;16250;49.932;10.980;2023-06-19T14:31:55;5.72;;;5.10;;
29210;SDS011;16250;49.932;10.980;2023-06-19T14:34:20;5.80;;;4.90;;
29210;SDS011;16250;49.932;10.980;2023-06-19T14:36:46;6.07;;;5.47;;
29210;SDS011;16250;49.932;10.980;2023-06-19T14:39:11;6.82;;;6.15;;
29210;SDS011;16250;49.932;10.980;2023-06-19T14:41:37;6.75;;;5.35;;
29210;SDS011;16250;49.932;10.980;2023-06-19T14:44:03;5.50;;;5.00;;